Terminal Aerodrome Forecast
Issued by NWS

Home | Current Version | Previous Version | Text Only | Print | Product List | Glossary On
Versions: 1 2 3 4 5 6 7 8 9 10 11 12 13 14 15
078
FTPA31 PHFO 262013 AAA
TAFHNY
TAF AMD
PHNY 262013Z 2620/2718 05006KT P6SM BKN025 OVC035
     FM262100 25008KT P6SM BKN025
     FM270300 03010KT P6SM SCT025=

USA.gov is the U.S. government's official web portal to all federal, state and local government web resources and services.